Time;durP1;ratioP1;P1;durP2;ratioP2;P2;SDS_P1;SDS_P2;PMS_P1;PMS_P2;Temp;Humidity;BMP_temperature;BMP_pressure;BME280_temperature;BME280_humidity;BME280_pressure;Samples;Min_cycle;Max_cycle;Signal;HPM_P1;HPM_P2
2023/11/21 00:00:49;;;;;;;22.48;15.10;;;8.80;99.90;;;;;;5021274;28;20045;-74
2023/11/21 00:03:15;;;;;;;22.88;16.63;;;8.80;99.90;;;;;;5018953;28;20051;-80
2023/11/21 00:05:41;;;;;;;25.52;17.02;;;8.80;99.90;;;;;;5019482;28;20482;-73
2023/11/21 00:08:08;;;;;;;22.98;16.45;;;8.90;99.90;;;;;;5018466;28;20077;-74
2023/11/21 00:10:34;;;;;;;25.15;16.30;;;8.90;99.90;;;;;;5021074;28;20042;-80
2023/11/21 00:13:02;;;;;;;21.55;16.38;;;8.80;99.90;;;;;;5021264;28;20044;-76
2023/11/21 00:15:28;;;;;;;23.45;16.98;;;8.90;99.90;;;;;;5017828;28;20045;-77
2023/11/21 00:17:54;;;;;;;28.73;20.17;;;8.80;99.90;;;;;;5019920;28;20117;-77
2023/11/21 00:20:20;;;;;;;26.70;19.38;;;8.80;99.90;;;;;;5019068;28;20141;-75
2023/11/21 00:22:46;;;;;;;28.58;18.02;;;8.80;99.90;;;;;;5020259;28;20026;-77
2023/11/21 00:25:14;;;;;;;31.20;19.67;;;8.90;99.80;;;;;;5020737;28;20120;-78
2023/11/21 00:27:41;;;;;;;27.90;18.25;;;8.90;99.80;;;;;;5019874;28;20133;-76
2023/11/21 00:30:08;;;;;;;31.58;19.13;;;8.90;99.80;;;;;;5016561;28;20095;-78
2023/11/21 00:32:36;;;;;;;28.92;19.42;;;8.90;99.70;;;;;;5019619;28;20034;-77
2023/11/21 00:35:02;;;;;;;23.48;18.63;;;8.90;99.70;;;;;;5021230;28;20430;-75
2023/11/21 00:37:27;;;;;;;28.35;19.45;;;9.00;99.70;;;;;;5022078;28;20550;-80
2023/11/21 00:39:53;;;;;;;24.65;17.80;;;9.00;99.70;;;;;;5019530;28;20121;-75
2023/11/21 00:42:19;;;;;;;27.13;19.23;;;9.00;99.70;;;;;;5020736;28;20087;-75
2023/11/21 00:44:45;;;;;;;23.95;16.90;;;9.00;99.70;;;;;;5017396;28;20033;-80
2023/11/21 00:47:11;;;;;;;26.20;19.33;;;9.10;99.70;;;;;;5018568;28;20124;-76
2023/11/21 00:49:39;;;;;;;28.17;19.52;;;9.10;99.70;;;;;;5019900;28;20179;-75
2023/11/21 00:52:05;;;;;;;26.23;17.77;;;9.10;99.70;;;;;;5019811;28;20033;-78
2023/11/21 00:54:31;;;;;;;24.20;17.27;;;9.10;99.60;;;;;;5020784;28;20355;-75
2023/11/21 00:56:57;;;;;;;26.75;16.85;;;9.10;99.60;;;;;;5017926;28;20144;-81
2023/11/21 00:59:24;;;;;;;25.45;16.90;;;9.10;99.60;;;;;;5018959;28;20559;-76
2023/11/21 01:01:54;;;;;;;22.45;16.45;;;9.10;99.60;;;;;;5018718;28;20040;-76
2023/11/21 01:04:20;;;;;;;27.80;18.58;;;9.10;99.60;;;;;;5021663;28;20108;-76
2023/11/21 01:06:45;;;;;;;29.35;17.95;;;9.20;99.60;;;;;;5019649;28;20116;-78
2023/11/21 01:09:12;;;;;;;29.48;18.58;;;9.20;99.60;;;;;;5018660;28;20025;-75
2023/11/21 01:11:38;;;;;;;28.85;17.60;;;9.20;99.60;;;;;;5017284;28;20116;-82
2023/11/21 01:14:04;;;;;;;25.20;18.15;;;9.20;99.60;;;;;;5020965;28;20133;-75
2023/11/21 01:16:32;;;;;;;28.58;17.67;;;9.20;99.60;;;;;;5022511;28;20037;-77
2023/11/21 01:18:59;;;;;;;23.77;16.80;;;9.20;99.60;;;;;;5026704;28;20117;-81
2023/11/21 01:21:25;;;;;;;26.25;18.63;;;9.20;99.60;;;;;;5022798;28;20111;-75
2023/11/21 01:23:50;;;;;;;23.13;17.17;;;9.20;99.60;;;;;;5022651;28;20017;-75
2023/11/21 01:26:16;;;;;;;27.15;17.45;;;9.30;99.60;;;;;;5022880;28;20500;-78
2023/11/21 01:28:42;;;;;;;20.27;16.05;;;9.30;99.50;;;;;;5026153;28;20059;-78
2023/11/21 01:31:07;;;;;;;23.65;17.70;;;9.20;99.50;;;;;;5022340;28;20103;-80
2023/11/21 01:33:33;;;;;;;25.15;16.73;;;9.30;99.60;;;;;;5025363;28;20119;-75
2023/11/21 01:35:59;;;;;;;24.50;16.23;;;9.30;99.60;;;;;;5023015;28;20060;-78
2023/11/21 01:38:25;;;;;;;22.17;15.90;;;9.30;99.60;;;;;;5022190;28;20060;-84
2023/11/21 01:40:51;;;;;;;22.63;15.68;;;9.30;99.60;;;;;;5025441;28;20033;-76
2023/11/21 01:43:17;;;;;;;26.15;16.45;;;9.30;99.60;;;;;;5023706;28;20042;-81
2023/11/21 01:45:45;;;;;;;23.00;15.63;;;9.30;99.60;;;;;;5020864;28;20045;-75
2023/11/21 01:48:10;;;;;;;25.35;17.15;;;9.30;99.60;;;;;;5024388;28;20025;-76
2023/11/21 01:50:36;;;;;;;21.13;15.52;;;9.30;99.60;;;;;;5018580;28;20071;-79
2023/11/21 01:53:03;;;;;;;30.08;18.35;;;9.30;99.60;;;;;;5025521;28;20053;-76
2023/11/21 01:55:29;;;;;;;23.95;16.13;;;9.30;99.60;;;;;;5021251;28;20053;-78
2023/11/21 01:57:57;;;;;;;24.33;16.38;;;9.30;99.60;;;;;;5023063;28;20041;-82
2023/11/21 02:00:23;;;;;;;27.95;18.63;;;9.40;99.60;;;;;;5023943;28;20347;-74
2023/11/21 02:02:49;;;;;;;24.52;16.92;;;9.40;99.60;;;;;;5020117;28;20053;-76
2023/11/21 02:05:18;;;;;;;25.90;17.80;;;9.40;99.60;;;;;;5027674;28;20299;-82
2023/11/21 02:07:44;;;;;;;27.85;17.95;;;9.40;99.70;;;;;;5017575;28;20030;-75
2023/11/21 02:10:14;;;;;;;28.23;16.58;;;9.40;99.60;;;;;;5023664;28;20079;-75
2023/11/21 02:12:44;;;;;;;21.73;14.75;;;9.40;99.60;;;;;;5020270;28;20026;-80
2023/11/21 02:15:23;;;;;;;24.08;16.20;;;9.40;99.60;;;;;;5022451;28;20041;-78
2023/11/21 02:17:53;;;;;;;24.95;15.85;;;9.40;99.60;;;;;;5021409;28;20430;-77
2023/11/21 02:20:24;;;;;;;23.98;17.05;;;9.40;99.60;;;;;;5023732;28;20226;-76
2023/11/21 02:22:57;;;;;;;25.30;16.02;;;9.40;99.60;;;;;;5021444;28;20123;-78
2023/11/21 02:25:27;;;;;;;27.67;16.05;;;9.40;99.60;;;;;;5020187;28;20068;-75
2023/11/21 02:27:54;;;;;;;28.23;17.42;;;9.40;99.70;;;;;;5025242;28;20029;-82
2023/11/21 02:30:25;;;;;;;23.35;17.27;;;9.40;99.60;;;;;;5045927;28;20051;-84
2023/11/21 02:32:53;;;;;;;24.08;15.38;;;9.40;99.60;;;;;;5055971;28;20026;-79
2023/11/21 02:35:20;;;;;;;31.08;19.73;;;9.50;99.70;;;;;;5042724;28;20031;-84
2023/11/21 02:37:47;;;;;;;27.05;17.92;;;9.50;99.60;;;;;;5038019;28;20018;-78
2023/11/21 02:40:12;;;;;;;22.42;15.60;;;9.50;99.70;;;;;;5020292;28;20037;-77
2023/11/21 02:42:40;;;;;;;24.33;16.23;;;9.50;99.70;;;;;;5024598;28;20122;-81
2023/11/21 02:45:07;;;;;;;22.40;15.20;;;9.50;99.70;;;;;;5022840;28;20510;-76
2023/11/21 02:47:33;;;;;;;25.77;17.65;;;9.50;99.70;;;;;;5022409;28;20041;-77
2023/11/21 02:49:59;;;;;;;24.95;16.45;;;9.50;99.70;;;;;;5022232;28;20030;-77
2023/11/21 02:52:25;;;;;;;29.05;18.10;;;9.60;99.70;;;;;;5021630;28;20025;-75
2023/11/21 02:54:51;;;;;;;30.67;20.25;;;9.50;99.70;;;;;;5023648;28;20112;-75
2023/11/21 02:57:17;;;;;;;26.70;16.48;;;9.60;99.70;;;;;;5021744;28;20094;-75
2023/11/21 02:59:42;;;;;;;28.33;18.45;;;9.60;99.70;;;;;;5022920;28;20454;-74
2023/11/21 03:02:08;;;;;;;30.08;17.42;;;9.60;99.70;;;;;;5019719;28;20030;-78
2023/11/21 03:04:35;;;;;;;26.80;15.90;;;9.60;99.70;;;;;;5026896;28;20414;-77
2023/11/21 03:07:00;;;;;;;25.90;17.10;;;9.60;99.70;;;;;;5023460;28;20136;-75
2023/11/21 03:09:26;;;;;;;23.40;16.98;;;9.60;99.70;;;;;;5022124;28;20025;-81
2023/11/21 03:11:53;;;;;;;30.13;17.83;;;9.60;99.70;;;;;;5023075;28;20025;-82
2023/11/21 03:14:19;;;;;;;28.05;18.90;;;9.60;99.60;;;;;;5020732;28;20028;-77
2023/11/21 03:16:45;;;;;;;29.98;18.08;;;9.60;99.70;;;;;;5022075;28;20443;-79
2023/11/21 03:19:11;;;;;;;28.10;17.50;;;9.60;99.70;;;;;;5024281;28;20360;-74
2023/11/21 03:21:37;;;;;;;27.17;16.75;;;9.70;99.80;;;;;;5021252;28;20041;-77
2023/11/21 03:24:03;;;;;;;26.58;17.80;;;9.60;99.70;;;;;;5022047;28;20040;-76
2023/11/21 03:26:30;;;;;;;30.38;18.38;;;9.70;99.70;;;;;;5021123;28;20060;-77
2023/11/21 03:28:55;;;;;;;28.20;19.00;;;9.70;99.70;;;;;;5023318;28;20367;-80
2023/11/21 03:31:21;;;;;;;25.73;18.08;;;9.70;99.70;;;;;;5021043;28;20249;-78
2023/11/21 03:33:47;;;;;;;29.52;18.90;;;9.70;99.70;;;;;;5022132;28;20196;-75
2023/11/21 03:36:14;;;;;;;35.58;21.85;;;9.70;99.70;;;;;;5020736;28;20057;-78
2023/11/21 03:38:41;;;;;;;29.67;19.88;;;9.70;99.70;;;;;;5020565;28;20060;-77
2023/11/21 03:41:09;;;;;;;28.45;19.10;;;9.70;99.70;;;;;;5020800;28;20490;-81
2023/11/21 03:43:36;;;;;;;34.30;19.83;;;9.70;99.70;;;;;;5024168;28;20063;-80
2023/11/21 03:46:02;;;;;;;36.50;22.80;;;9.70;99.70;;;;;;5020695;28;20029;-76
2023/11/21 03:48:28;;;;;;;33.80;22.65;;;9.70;99.70;;;;;;5022686;28;20041;-75
2023/11/21 03:50:53;;;;;;;37.83;24.40;;;9.70;99.80;;;;;;5022039;28;20048;-77
2023/11/21 03:53:19;;;;;;;36.67;24.60;;;9.80;99.80;;;;;;5021063;28;20129;-75
2023/11/21 03:55:45;;;;;;;34.65;23.90;;;9.80;99.80;;;;;;5017757;28;20055;-79
2023/11/21 03:58:10;;;;;;;39.70;25.02;;;9.80;99.80;;;;;;5020513;28;20056;-76
2023/11/21 04:00:36;;;;;;;37.30;25.05;;;9.70;99.80;;;;;;5022177;28;20041;-76
2023/11/21 04:03:01;;;;;;;44.15;27.00;;;9.80;99.80;;;;;;5022571;28;20045;-76
2023/11/21 04:05:27;;;;;;;36.00;23.60;;;9.80;99.80;;;;;;5022122;28;20520;-76
2023/11/21 04:07:53;;;;;;;37.97;26.30;;;9.80;99.80;;;;;;5017708;28;20462;-79
2023/11/21 04:10:19;;;;;;;42.28;28.48;;;9.80;99.90;;;;;;5021182;28;20041;-81
2023/11/21 04:12:45;;;;;;;42.78;28.92;;;9.80;99.80;;;;;;5019865;28;20033;-76
2023/11/21 04:15:12;;;;;;;42.55;26.90;;;9.90;99.80;;;;;;5020492;28;20038;-83
2023/11/21 04:17:38;;;;;;;43.20;29.10;;;9.90;99.90;;;;;;5021113;28;20588;-77
2023/11/21 04:20:09;;;;;;;37.58;25.92;;;9.90;99.90;;;;;;5019067;28;20026;-79
2023/11/21 04:22:43;;;;;;;44.33;29.00;;;9.90;99.90;;;;;;5020466;28;20025;-79
2023/11/21 04:25:13;;;;;;;38.55;25.58;;;9.90;99.90;;;;;;5016510;28;20021;-79
2023/11/21 04:27:39;;;;;;;41.80;28.45;;;9.90;99.90;;;;;;5020464;28;20026;-75
2023/11/21 04:30:06;;;;;;;41.55;27.30;;;9.90;99.90;;;;;;5018512;28;20119;-77
2023/11/21 04:32:31;;;;;;;41.38;26.58;;;9.90;99.90;;;;;;5019673;28;20398;-80
2023/11/21 04:34:57;;;;;;;40.67;26.92;;;9.90;99.90;;;;;;5020286;28;20522;-81
2023/11/21 04:37:24;;;;;;;38.55;26.55;;;9.90;99.90;;;;;;5022226;28;20132;-78
2023/11/21 04:39:49;;;;;;;41.35;28.02;;;9.90;99.90;;;;;;5021362;28;20033;-75
2023/11/21 04:42:15;;;;;;;42.20;27.67;;;9.90;99.90;;;;;;5019844;28;20056;-76
2023/11/21 04:44:41;;;;;;;38.58;25.15;;;10.00;99.90;;;;;;5017446;28;20045;-81
2023/11/21 04:47:07;;;;;;;44.50;28.63;;;10.00;99.90;;;;;;5016531;28;20363;-75
2023/11/21 04:49:33;;;;;;;43.22;28.60;;;10.00;99.90;;;;;;5018582;28;20044;-80
2023/11/21 04:51:59;;;;;;;46.75;29.58;;;10.00;99.90;;;;;;5016417;28;20471;-80
2023/11/21 04:54:24;;;;;;;41.83;28.00;;;10.00;99.90;;;;;;5021506;28;20023;-78
2023/11/21 04:56:50;;;;;;;38.08;25.83;;;10.00;99.90;;;;;;5019236;28;20052;-76
2023/11/21 04:59:16;;;;;;;39.92;26.23;;;10.00;99.90;;;;;;5021920;28;20029;-78
2023/11/21 05:01:41;;;;;;;41.35;27.33;;;10.10;99.90;;;;;;5018476;28;20380;-75
2023/11/21 05:04:08;;;;;;;38.55;25.88;;;10.10;99.90;;;;;;5021937;28;20060;-81
2023/11/21 05:06:34;;;;;;;41.08;25.75;;;10.00;99.90;;;;;;5018900;28;20034;-74
2023/11/21 05:09:00;;;;;;;44.08;26.13;;;10.10;99.90;;;;;;5019086;28;20030;-74
2023/11/21 05:11:27;;;;;;;37.55;26.77;;;10.10;99.90;;;;;;5036771;28;20036;-74
2023/11/21 05:13:53;;;;;;;39.10;25.80;;;10.10;99.90;;;;;;5018527;28;20639;-77
2023/11/21 05:16:20;;;;;;;39.15;25.52;;;10.10;99.90;;;;;;5035056;28;20041;-75
2023/11/21 05:18:45;;;;;;;35.65;23.75;;;10.10;99.90;;;;;;5020285;28;20052;-76
2023/11/21 05:21:11;;;;;;;34.08;23.88;;;10.10;99.90;;;;;;5020648;28;20498;-76
2023/11/21 05:23:37;;;;;;;38.03;24.85;;;10.10;99.90;;;;;;5019841;28;20030;-80
2023/11/21 05:26:03;;;;;;;34.78;25.27;;;10.10;99.90;;;;;;5015108;28;20620;-74
2023/11/21 05:28:29;;;;;;;35.78;24.67;;;10.10;99.90;;;;;;5017398;28;20037;-75
2023/11/21 05:30:54;;;;;;;51.20;31.85;;;10.10;99.90;;;;;;5020140;28;20057;-82
2023/11/21 05:33:20;;;;;;;42.97;28.50;;;10.00;99.90;;;;;;5019589;28;20849;-79
2023/11/21 05:35:48;;;;;;;42.70;28.02;;;10.00;99.90;;;;;;5010231;28;20583;-77
2023/11/21 05:38:14;;;;;;;40.78;27.42;;;10.10;99.90;;;;;;5015181;28;20430;-78
2023/11/21 05:40:40;;;;;;;38.08;25.35;;;10.10;99.90;;;;;;5026155;28;20682;-80
2023/11/21 05:43:06;;;;;;;37.25;26.25;;;10.10;99.90;;;;;;5011554;28;20038;-81
2023/11/21 05:45:32;;;;;;;35.30;23.98;;;10.10;99.90;;;;;;5013631;28;20292;-74
2023/11/21 05:47:58;;;;;;;35.85;26.20;;;10.10;99.90;;;;;;5029173;28;20046;-76
2023/11/21 05:50:24;;;;;;;38.08;25.83;;;10.10;99.90;;;;;;5010996;28;20030;-80
2023/11/21 05:52:50;;;;;;;40.05;26.80;;;10.10;99.90;;;;;;5010416;28;20026;-75
2023/11/21 05:55:16;;;;;;;45.67;29.20;;;10.00;99.90;;;;;;5013951;28;20045;-75
2023/11/21 05:57:43;;;;;;;50.72;29.70;;;10.10;99.90;;;;;;5016920;28;20037;-77
2023/11/21 06:00:11;;;;;;;50.63;33.45;;;10.00;99.90;;;;;;5017778;28;20033;-77
2023/11/21 06:02:38;;;;;;;47.95;31.30;;;10.00;99.90;;;;;;5017636;28;20482;-78
2023/11/21 06:05:05;;;;;;;46.53;29.60;;;10.00;99.90;;;;;;5016738;28;20041;-78
2023/11/21 06:07:30;;;;;;;42.45;27.73;;;10.00;99.90;;;;;;5020168;28;20683;-76
2023/11/21 06:09:56;;;;;;;46.45;27.77;;;10.00;99.90;;;;;;5021493;28;20109;-81
2023/11/21 06:12:22;;;;;;;42.08;28.30;;;10.00;99.90;;;;;;5023772;28;20033;-77
2023/11/21 06:14:48;;;;;;;38.25;26.48;;;10.00;99.90;;;;;;5018848;28;20040;-76
2023/11/21 06:17:13;;;;;;;42.20;29.92;;;10.00;99.90;;;;;;5022228;28;20057;-79
2023/11/21 06:19:40;;;;;;;44.55;27.88;;;10.00;99.90;;;;;;5020671;28;20187;-76
2023/11/21 06:22:05;;;;;;;40.30;26.25;;;10.00;99.90;;;;;;5020426;28;20045;-77
2023/11/21 06:24:31;;;;;;;38.08;26.45;;;10.00;99.90;;;;;;5018171;28;20602;-81
2023/11/21 06:26:57;;;;;;;43.70;27.48;;;10.00;99.90;;;;;;5019059;28;20394;-75
2023/11/21 06:29:23;;;;;;;37.38;26.25;;;10.00;99.90;;;;;;5019431;28;20042;-77
2023/11/21 06:31:49;;;;;;;41.67;28.15;;;10.00;99.90;;;;;;5020127;28;20470;-76
2023/11/21 06:34:15;;;;;;;43.63;28.20;;;9.90;99.90;;;;;;5020533;28;20096;-76
2023/11/21 06:36:41;;;;;;;42.08;28.45;;;9.90;99.90;;;;;;5020658;28;20494;-79
2023/11/21 06:39:07;;;;;;;42.30;29.80;;;10.00;99.90;;;;;;5022451;28;20026;-74
2023/11/21 06:41:34;;;;;;;43.35;29.67;;;9.90;99.90;;;;;;5017953;28;20099;-74
2023/11/21 06:43:59;;;;;;;47.45;30.35;;;9.90;99.90;;;;;;5020971;28;20516;-75
2023/11/21 06:46:25;;;;;;;40.28;28.35;;;9.90;99.90;;;;;;5021154;28;20037;-75
2023/11/21 06:48:50;;;;;;;46.85;30.67;;;10.00;99.90;;;;;;5022194;28;20025;-79
2023/11/21 06:51:16;;;;;;;56.13;31.42;;;10.00;99.90;;;;;;5020958;28;20041;-80
2023/11/21 06:53:42;;;;;;;42.65;29.05;;;10.00;99.90;;;;;;5019269;28;20395;-75
2023/11/21 06:56:17;;;;;;;49.72;30.38;;;10.00;99.90;;;;;;5016125;28;20053;-78
2023/11/21 06:58:45;;;;;;;42.53;28.98;;;10.00;99.90;;;;;;5018788;28;20029;-77
2023/11/21 07:01:11;;;;;;;43.97;27.80;;;10.00;99.90;;;;;;5019370;28;20080;-77
2023/11/21 07:03:37;;;;;;;41.08;28.08;;;10.00;99.90;;;;;;5018201;28;20470;-75
2023/11/21 07:06:03;;;;;;;41.95;27.30;;;10.00;99.90;;;;;;5017721;28;20044;-74
2023/11/21 07:08:29;;;;;;;39.58;25.30;;;10.00;99.90;;;;;;5020161;28;20033;-75
2023/11/21 07:10:55;;;;;;;39.00;26.35;;;10.10;99.90;;;;;;5017423;28;20045;-75
2023/11/21 07:13:21;;;;;;;45.25;27.90;;;10.00;99.90;;;;;;5015278;28;20121;-73
2023/11/21 07:15:48;;;;;;;40.50;23.23;;;10.00;99.90;;;;;;5019588;28;20037;-75
2023/11/21 07:18:13;;;;;;;38.78;25.58;;;10.00;99.90;;;;;;5023225;28;20029;-76
2023/11/21 07:20:39;;;;;;;39.53;26.02;;;10.10;99.90;;;;;;5027799;28;20602;-74
2023/11/21 07:23:05;;;;;;;44.70;26.70;;;10.10;99.90;;;;;;5019058;28;20042;-76
2023/11/21 07:25:33;;;;;;;34.25;22.70;;;10.10;99.90;;;;;;5015105;28;20678;-74
2023/11/21 07:27:59;;;;;;;35.00;23.10;;;10.10;99.90;;;;;;5012981;28;20038;-74
2023/11/21 07:30:25;;;;;;;34.95;23.40;;;10.10;99.90;;;;;;5021667;28;20156;-74
2023/11/21 07:32:51;;;;;;;38.58;22.27;;;10.20;99.90;;;;;;5016912;28;20101;-74
2023/11/21 07:35:16;;;;;;;29.70;19.02;;;10.10;99.90;;;;;;5021349;28;20301;-74
2023/11/21 07:37:43;;;;;;;28.80;18.73;;;10.10;99.90;;;;;;5019334;28;20033;-74
2023/11/21 07:40:11;;;;;;;31.83;19.83;;;10.20;99.90;;;;;;5017069;28;20060;-74
2023/11/21 07:42:37;;;;;;;36.28;19.50;;;10.20;99.90;;;;;;5015814;28;20057;-73
2023/11/21 07:45:04;;;;;;;31.80;20.10;;;10.20;99.90;;;;;;5018858;28;20399;-74
2023/11/21 07:47:29;;;;;;;32.45;21.05;;;10.20;99.90;;;;;;5021625;28;20408;-72
2023/11/21 07:49:58;;;;;;;29.08;18.15;;;10.30;99.90;;;;;;5021879;28;20033;-73
2023/11/21 07:52:24;;;;;;;29.05;19.65;;;10.30;99.90;;;;;;5018168;28;20124;-73
2023/11/21 07:54:49;;;;;;;31.33;20.35;;;10.30;99.90;;;;;;5016008;28;20550;-73
2023/11/21 07:57:15;;;;;;;32.10;19.88;;;10.30;99.90;;;;;;5020118;28;20060;-73
2023/11/21 07:59:41;;;;;;;30.23;19.88;;;10.40;99.90;;;;;;5017502;28;20064;-73
2023/11/21 08:02:07;;;;;;;30.85;21.08;;;10.40;99.90;;;;;;5013601;28;20033;-72
2023/11/21 08:04:33;;;;;;;28.55;19.25;;;10.30;99.90;;;;;;5020673;28;20021;-74
2023/11/21 08:06:58;;;;;;;32.90;19.95;;;10.40;99.90;;;;;;5012057;28;20080;-73
2023/11/21 08:09:25;;;;;;;31.30;18.90;;;10.40;99.90;;;;;;5017502;28;20033;-73
2023/11/21 08:11:53;;;;;;;28.05;18.40;;;10.40;99.90;;;;;;5018459;28;20025;-74
2023/11/21 08:14:18;;;;;;;30.33;21.38;;;10.40;99.90;;;;;;5019920;28;20420;-74
2023/11/21 08:16:44;;;;;;;31.95;20.63;;;10.40;99.90;;;;;;5019585;28;20047;-73
2023/11/21 08:19:11;;;;;;;31.85;21.45;;;10.40;99.90;;;;;;5019814;28;20429;-73
2023/11/21 08:21:38;;;;;;;31.38;21.70;;;10.40;99.90;;;;;;5019561;28;20049;-73
2023/11/21 08:24:05;;;;;;;31.40;21.52;;;10.40;99.90;;;;;;5019285;28;20025;-75
2023/11/21 08:26:31;;;;;;;30.20;21.20;;;10.50;99.90;;;;;;5015992;28;20068;-74
2023/11/21 08:28:56;;;;;;;27.27;18.85;;;10.50;99.90;;;;;;5019506;28;20076;-72
2023/11/21 08:31:26;;;;;;;33.28;21.58;;;10.60;99.90;;;;;;5018059;28;20040;-74
2023/11/21 08:33:54;;;;;;;29.88;19.95;;;10.60;99.90;;;;;;5020393;28;20032;-73
2023/11/21 08:36:20;;;;;;;27.45;17.90;;;10.60;99.90;;;;;;5016696;28;20064;-73
2023/11/21 08:38:46;;;;;;;27.10;18.60;;;10.50;99.90;;;;;;5022304;28;20026;-75
2023/11/21 08:41:12;;;;;;;31.20;19.80;;;10.60;99.90;;;;;;5020868;28;20453;-72
2023/11/21 08:43:39;;;;;;;29.50;19.35;;;10.60;99.90;;;;;;5019101;28;20055;-73
2023/11/21 08:46:06;;;;;;;30.25;20.23;;;10.60;99.90;;;;;;5020423;28;20107;-74
2023/11/21 08:48:31;;;;;;;29.65;18.77;;;10.60;99.90;;;;;;5018501;28;20136;-73
2023/11/21 08:50:57;;;;;;;29.08;18.75;;;10.60;99.90;;;;;;5019045;28;20452;-74
2023/11/21 08:53:22;;;;;;;29.88;18.40;;;10.60;99.90;;;;;;5020911;28;20083;-73
2023/11/21 08:55:49;;;;;;;27.63;18.23;;;10.60;99.90;;;;;;5018116;28;20050;-74
2023/11/21 08:58:15;;;;;;;26.25;17.73;;;10.60;99.90;;;;;;5018145;28;20033;-75
2023/11/21 09:00:41;;;;;;;29.88;19.13;;;10.70;99.90;;;;;;5023090;28;20514;-72
2023/11/21 09:03:08;;;;;;;24.85;16.92;;;10.90;99.90;;;;;;5020627;28;20108;-73
2023/11/21 09:05:38;;;;;;;25.33;16.80;;;11.00;99.90;;;;;;5017665;28;20033;-76
2023/11/21 09:08:04;;;;;;;24.42;15.18;;;11.10;99.90;;;;;;5019008;28;20032;-74
2023/11/21 09:10:29;;;;;;;23.40;14.27;;;11.20;99.90;;;;;;5020472;28;20038;-75
2023/11/21 09:12:55;;;;;;;21.20;13.48;;;11.30;99.90;;;;;;5019730;28;20036;-74
2023/11/21 09:15:21;;;;;;;19.75;13.23;;;11.40;99.70;;;;;;5019838;28;20096;-74
2023/11/21 09:17:47;;;;;;;16.80;12.45;;;11.50;99.50;;;;;;5020446;28;20021;-73
2023/11/21 09:20:14;;;;;;;16.77;11.98;;;11.60;99.50;;;;;;5020585;28;20514;-73
2023/11/21 09:22:40;;;;;;;17.10;11.88;;;11.60;99.40;;;;;;5017806;28;20041;-73
2023/11/21 09:25:08;;;;;;;16.38;10.70;;;11.80;99.20;;;;;;5016618;28;20059;-74
2023/11/21 09:27:35;;;;;;;14.60;10.45;;;11.70;98.80;;;;;;5020699;28;20029;-73
2023/11/21 09:30:01;;;;;;;16.58;10.10;;;11.80;98.70;;;;;;5020355;28;20378;-73
2023/11/21 09:32:27;;;;;;;16.95;9.88;;;11.80;98.50;;;;;;5016447;28;20040;-75
2023/11/21 09:34:55;;;;;;;17.42;10.02;;;12.00;98.50;;;;;;5019040;28;20038;-72
2023/11/21 09:37:21;;;;;;;16.17;9.68;;;12.00;98.20;;;;;;5021645;28;20064;-74
2023/11/21 09:39:47;;;;;;;16.00;8.65;;;12.10;98.10;;;;;;5023573;28;20037;-73
2023/11/21 09:42:19;;;;;;;17.40;9.13;;;12.20;97.80;;;;;;5021309;28;20375;-72
2023/11/21 09:44:55;;;;;;;12.98;9.02;;;12.30;97.60;;;;;;5040085;28;20542;-73
2023/11/21 09:47:22;;;;;;;13.77;8.15;;;12.40;97.60;;;;;;5021508;28;20031;-73
2023/11/21 09:49:49;;;;;;;12.02;7.95;;;12.50;97.00;;;;;;5023250;28;20366;-73
2023/11/21 09:52:28;;;;;;;14.00;8.00;;;12.40;96.70;;;;;;5023024;28;20022;-74
2023/11/21 09:54:57;;;;;;;13.38;7.63;;;12.40;96.80;;;;;;5020966;28;20029;-72
2023/11/21 09:57:24;;;;;;;14.32;7.28;;;12.60;97.10;;;;;;5023150;28;20038;-73
2023/11/21 09:59:58;;;;;;;12.60;7.13;;;12.60;96.70;;;;;;5024254;28;20465;-73
2023/11/21 10:02:28;;;;;;;13.48;7.00;;;12.60;96.30;;;;;;5022661;28;20021;-74
2023/11/21 10:04:54;;;;;;;12.85;6.80;;;12.60;95.90;;;;;;5022260;28;20584;-73
2023/11/21 10:07:21;;;;;;;10.82;6.78;;;12.60;96.10;;;;;;5020215;28;20037;-73
2023/11/21 10:09:48;;;;;;;11.95;6.70;;;12.50;96.30;;;;;;5022872;28;20030;-74
2023/11/21 10:12:15;;;;;;;10.82;5.97;;;12.50;96.60;;;;;;5020241;28;20477;-73
2023/11/21 10:14:42;;;;;;;11.13;5.70;;;12.40;96.50;;;;;;5024188;28;20462;-72
2023/11/21 10:17:11;;;;;;;11.13;5.72;;;12.30;96.40;;;;;;5022853;28;20065;-74
2023/11/21 10:19:39;;;;;;;12.68;5.90;;;12.30;96.50;;;;;;5023867;28;20033;-73
2023/11/21 10:22:06;;;;;;;12.68;6.20;;;12.30;96.50;;;;;;5022620;28;20018;-72
2023/11/21 10:24:33;;;;;;;11.90;5.13;;;12.20;96.60;;;;;;5022968;28;20108;-73
2023/11/21 10:26:59;;;;;;;15.55;6.38;;;12.20;96.80;;;;;;5018600;28;20064;-73
2023/11/21 10:29:26;;;;;;;11.25;6.40;;;12.20;96.90;;;;;;5021284;28;20048;-73
2023/11/21 10:31:57;;;;;;;13.15;6.85;;;12.10;97.00;;;;;;5019493;28;20121;-73
2023/11/21 10:34:23;;;;;;;11.32;6.68;;;12.10;97.10;;;;;;5024778;28;20033;-74
2023/11/21 10:36:48;;;;;;;12.40;7.57;;;12.10;97.10;;;;;;5021008;28;20119;-74
2023/11/21 10:39:19;;;;;;;13.40;7.10;;;12.20;97.10;;;;;;5018681;28;20493;-74
2023/11/21 10:41:48;;;;;;;15.75;8.07;;;12.20;97.00;;;;;;5021653;28;20109;-73
2023/11/21 10:44:20;;;;;;;14.10;7.70;;;12.20;96.80;;;;;;5020354;28;20415;-74
2023/11/21 10:46:50;;;;;;;18.15;8.68;;;12.20;96.70;;;;;;5020995;28;20041;-74
2023/11/21 10:49:20;;;;;;;17.75;7.90;;;12.20;96.40;;;;;;5023124;28;20022;-74
2023/11/21 10:51:48;;;;;;;13.90;8.10;;;12.20;96.20;;;;;;5018279;28;20041;-73
2023/11/21 10:54:17;;;;;;;12.63;7.53;;;12.20;96.00;;;;;;5019601;28;20305;-73
2023/11/21 10:56:44;;;;;;;15.32;8.63;;;12.30;95.60;;;;;;5017790;28;20410;-75
2023/11/21 10:59:14;;;;;;;14.38;7.78;;;12.50;95.40;;;;;;5017799;28;20108;-75
2023/11/21 11:01:44;;;;;;;13.73;6.68;;;12.50;95.00;;;;;;5017904;28;20037;-74
2023/11/21 11:04:15;;;;;;;11.18;6.53;;;12.60;95.00;;;;;;5018363;28;20025;-74
2023/11/21 11:06:43;;;;;;;14.85;6.43;;;12.60;94.80;;;;;;5008988;28;20056;-74
2023/11/21 11:09:12;;;;;;;13.13;6.25;;;12.70;94.50;;;;;;5015989;28;20390;-74
2023/11/21 11:11:44;;;;;;;14.93;6.85;;;12.80;94.10;;;;;;5021113;28;20518;-74
2023/11/21 11:14:13;;;;;;;11.00;6.07;;;12.80;93.80;;;;;;5013728;28;20079;-74
2023/11/21 11:16:41;;;;;;;12.38;6.00;;;12.80;93.80;;;;;;5033421;28;20462;-73
2023/11/21 11:19:07;;;;;;;15.15;6.53;;;12.80;93.50;;;;;;5018934;28;20117;-73
2023/11/21 11:21:50;;;;;;;12.57;5.82;;;12.80;93.40;;;;;;5019521;28;20047;-72
2023/11/21 11:24:40;;;;;;;14.20;6.00;;;12.80;93.30;;;;;;5019422;28;20111;-73
2023/11/21 11:27:34;;;;;;;12.80;5.93;;;12.80;93.20;;;;;;5016369;28;20045;-75
2023/11/21 11:30:41;;;;;;;11.00;5.10;;;12.80;93.30;;;;;;5018971;28;20120;-74
2023/11/21 11:33:21;;;;;;;16.15;5.40;;;12.90;93.40;;;;;;4986823;28;20034;-72
2023/11/21 11:35:55;;;;;;;12.98;5.75;;;12.90;93.30;;;;;;5016548;28;20045;-72
2023/11/21 11:38:21;;;;;;;;;;;13.00;93.50;;;;;;5014042;28;20124;-74
2023/11/21 11:40:48;;;;;;;16.80;7.15;;;12.90;93.10;;;;;;5015179;28;19921;-73
2023/11/21 11:43:27;;;;;;;11.52;4.95;;;12.80;93.50;;;;;;5013966;28;20053;-72
2023/11/21 11:45:57;;;;;;;14.45;4.70;;;12.80;93.60;;;;;;5014463;28;20309;-72
2023/11/21 11:48:23;;;;;;;13.00;4.30;;;12.80;93.60;;;;;;5011622;28;20034;-74
2023/11/21 11:51:08;;;;;;;8.63;3.97;;;12.80;92.80;;;;;;5012541;28;20038;-74
2023/11/21 11:53:45;;;;;;;12.38;4.38;;;12.80;92.70;;;;;;5009540;28;20414;-75
2023/11/21 11:56:27;;;;;;;13.57;4.75;;;12.80;92.20;;;;;;5009926;28;20036;-74
2023/11/21 11:59:04;;;;;;;11.55;4.25;;;12.90;92.40;;;;;;5010243;28;20402;-74
2023/11/21 12:01:32;;;;;;;15.43;4.32;;;12.80;92.30;;;;;;5013118;28;20084;-75
2023/11/21 12:04:22;;;;;;;11.27;5.35;;;12.90;92.00;;;;;;5010161;28;20044;-75
2023/11/21 12:06:50;;;;;;;10.63;4.28;;;12.90;91.50;;;;;;5004985;28;20537;-74
2023/11/21 12:09:21;;;;;;;14.13;4.68;;;12.80;90.90;;;;;;5010836;28;20075;-73
2023/11/21 12:11:48;;;;;;;11.70;4.47;;;12.80;90.40;;;;;;5012477;28;20498;-75
2023/11/21 12:14:17;;;;;;;10.27;4.03;;;12.90;90.90;;;;;;5032184;28;20048;-73
2023/11/21 12:16:43;;;;;;;13.38;4.40;;;13.00;90.40;;;;;;5028829;28;20219;-74
2023/11/21 12:19:11;;;;;;;9.90;3.83;;;13.10;90.10;;;;;;5025888;28;20029;-73
2023/11/21 12:21:36;;;;;;;11.15;3.33;;;13.10;89.40;;;;;;5010549;28;20302;-75
2023/11/21 12:24:03;;;;;;;11.90;3.97;;;12.90;89.20;;;;;;5006933;28;20048;-74
2023/11/21 12:26:28;;;;;;;12.25;4.30;;;13.00;89.10;;;;;;5012687;28;20341;-73
2023/11/21 12:28:55;;;;;;;9.90;3.53;;;13.10;88.70;;;;;;5010317;28;20683;-73
2023/11/21 12:31:21;;;;;;;10.57;3.78;;;13.00;87.20;;;;;;5011567;28;20403;-73
2023/11/21 12:33:47;;;;;;;8.27;3.35;;;13.10;88.20;;;;;;5018255;28;20079;-73